WetterOnline ( https://www.wetteronline.at )

Wetter aktuell Wiesbaden

Aktuelles Wetter: Kleiner Feldberg (826m)

6-stündlich | Neueste Meldungen
Ortszeit Temperatur Wetter
Di, 27.09. 8:00 4.4° C Nebel
Di, 27.09. 2:00 6.0° C Nebel
Mo, 26.09. 20:00 6.9° C leichter Regen
Mo, 26.09. 14:00 6.8° C bewölkt
Mo, 26.09. 8:00 5.2° C bewölkt
Mo, 26.09. 2:00 5.8° C wolkenlos
So, 25.09. 20:00 7.1° C Nebel
So, 25.09. 14:00 7.3° C Sprühregen
Ortszeit Temperatur Wetter
Di, 27.09. 12:30 5.2° C bedeckt
Di, 27.09. 12:20 5.2° C Dunst
Di, 27.09. 12:10 5.6° C Dunst
Di, 27.09. 12:00 5.0° C Sprühregen
Di, 27.09. 11:50 5.0° C Sprühregen
Di, 27.09. 11:40 5.0° C leichter Regen
Di, 27.09. 11:30 5.0° C Nebel
Di, 27.09. 11:00 4.2° C Nebel
Di, 27.09. 10:30 4.2° C Nebel
Di, 27.09. 10:00 4.2° C Nebel
Di, 27.09. 9:30 4.3° C Nebel
Ortszeit Relative Feuchte Sichtweite
Di, 27.09. 8:00 100% 0.2 km
Di, 27.09. 2:00 100% 100 m
Mo, 26.09. 20:00 99% 100 m
Mo, 26.09. 14:00 92% 30 km
Mo, 26.09. 8:00 94% 30 km
Mo, 26.09. 2:00 89% 28 km
So, 25.09. 20:00 99% 2.4 km
So, 25.09. 14:00 99% 100 m
Ortszeit Relative Feuchte Sichtweite
Di, 27.09. 12:30 100% 4.8 km
Di, 27.09. 12:20 100% -
Di, 27.09. 12:10 100% -
Di, 27.09. 12:00 99% 10 km
Di, 27.09. 11:50 99% -
Di, 27.09. 11:40 100% -
Di, 27.09. 11:30 100% 0.3 km
Di, 27.09. 11:00 100% 0.4 km
Di, 27.09. 10:30 100% 0.3 km
Di, 27.09. 10:00 100% 0.2 km
Di, 27.09. 9:30 100% 0.2 km
Ortszeit Niederschlagsmenge Niederschlagsart
Di, 27.09. 8:00 12 l/m2 in 12 Std. Regen
Di, 27.09. 2:00 8 l/m2 in 6 Std. Regen
Mo, 26.09. 20:00 1 l/m2 in 12 Std. Regen
Mo, 26.09. 14:00 0.0 l/m2 in 6 Std. -
Mo, 26.09. 8:00 0.0 l/m2 in 12 Std. -
Mo, 26.09. 2:00 0.0 l/m2 in 6 Std. -
So, 25.09. 20:00 2 l/m2 in 12 Std. Regen
So, 25.09. 14:00 0.9 l/m2 in 6 Std. Regen
Ortszeit Niederschlagsmenge Niederschlagsart
Di, 27.09. 12:30 0.1 l/m2 in 1 Std. Schneeregen
Di, 27.09. 12:20 keine Meldung -
Di, 27.09. 12:10 keine Meldung -
Di, 27.09. 12:00 <0.05 l/m2 in 1 Std. Regen
Di, 27.09. 11:50 keine Meldung -
Di, 27.09. 11:40 keine Meldung -
Di, 27.09. 11:30 0.0 l/m2 in 1 Std. -
Di, 27.09. 11:00 <0.05 l/m2 in 1 Std. Regen
Di, 27.09. 10:30 0.0 l/m2 in 1 Std. -
Di, 27.09. 10:00 <0.05 l/m2 in 1 Std. Regen
Di, 27.09. 9:30 <0.05 l/m2 in 1 Std. -
Ortszeit Stärke Spitze Richtung
km/h Bft. km/h Grad Sektor
Di, 27.09. 8:00 17 3 44 300° NW
Di, 27.09. 2:00 11 2 54 260° W
Mo, 26.09. 20:00 14 3 40 240° SW
Mo, 26.09. 14:00 15 3 37 220° SW
Mo, 26.09. 8:00 14 3 36 240° SW
Mo, 26.09. 2:00 9 2 22 310° NW
So, 25.09. 20:00 7 2 36 320° NW
So, 25.09. 14:00 19 3 31 10° N
Ortszeit Stärke Spitze Richtung
km/h Bft. km/h Grad Sektor
Di, 27.09. 12:30 9 2 31 260° W
Di, 27.09. 12:20 9 2 - 260° W
Di, 27.09. 12:10 11 2 - 270° W
Di, 27.09. 12:00 11 2 32 260° W
Di, 27.09. 11:50 11 2 - 260° W
Di, 27.09. 11:40 11 2 - 280° W
Di, 27.09. 11:30 14 3 32 280° W
Di, 27.09. 11:00 14 3 36 290° W
Di, 27.09. 10:30 15 3 35 290° W
Di, 27.09. 10:00 14 3 36 290° W
Di, 27.09. 9:30 14 3 36 290° W
Ortszeit Untergrenze Bedeckung Gattung
total tief tief mittel hoch
Di, 27.09. 8:00 <30 m 8/8 0/8 - - -
Di, 27.09. 2:00 <30 m 8/8 0/8 - - -
Mo, 26.09. 20:00 <30 m 8/8 0/8 - - -
Mo, 26.09. 14:00 150 m 7/8 7/8 - - -
Mo, 26.09. 8:00 450 m 7/8 7/8 - - -
Mo, 26.09. 2:00 - 0/8 0/8 - - -
So, 25.09. 20:00 <30 m 8/8 0/8 - - -
So, 25.09. 14:00 <30 m 8/8 0/8 - - -
Ortszeit Bedeckungsgrad in Achtel und Wolkenuntergrenze
Di, 27.09. 12:30 7(30m) 8(150m)
Di, 27.09. 12:20 7(30m) 8(150m)
Di, 27.09. 12:10 7
Di, 27.09. 12:00 7(60m) 7(240m) 8(570m)
Di, 27.09. 11:50 7(60m) 7(240m) 8(570m)
Di, 27.09. 11:40 8
Di, 27.09. 11:30 8(<30m)
Di, 27.09. 11:00 7(<30m)
Di, 27.09. 10:30 8(<30m)
Di, 27.09. 10:00 8(<30m)
Di, 27.09. 9:30 8(<30m)
Ortszeit Stationsdruck (hPa) Tendenz (hPa in 3 Std.)
Di, 27.09. 8:00 903 + 1,3
Di, 27.09. 2:00 902 - 1,6
Mo, 26.09. 20:00 906 - 2,0
Mo, 26.09. 14:00 910 - 1,2
Mo, 26.09. 8:00 912 - 2,2
Mo, 26.09. 2:00 916 - 0,8
So, 25.09. 20:00 917 + 0,1
So, 25.09. 14:00 917 - 0,1
Ortszeit Stationsdruck (hPa) Tendenz (hPa in 3 Std.)
Di, 27.09. 12:30 905 + 1,1
Di, 27.09. 12:20 905 keine Meldung
Di, 27.09. 12:10 905 keine Meldung
Di, 27.09. 12:00 905 + 1,7
Di, 27.09. 11:50 905 keine Meldung
Di, 27.09. 11:40 905 keine Meldung
Di, 27.09. 11:30 905 + 1,9
Di, 27.09. 11:00 905 + 2,1
Di, 27.09. 10:30 904 + 2,1
Di, 27.09. 10:00 904 + 2,2
Di, 27.09. 9:30 904 + 2,2
Ortszeit Schneehöhe (cm)
Di, 27.09. 8:00 0
Di, 27.09. 2:00 0
Mo, 26.09. 20:00 0
Mo, 26.09. 14:00 0
Mo, 26.09. 8:00 0
Mo, 26.09. 2:00 0
So, 25.09. 20:00 0
So, 25.09. 14:00 0
Ortszeit Schneehöhe (cm)
Di, 27.09. 12:30 0
Di, 27.09. 12:20 0
Di, 27.09. 12:10 0
Di, 27.09. 12:00 0
Di, 27.09. 11:50 0
Di, 27.09. 11:40 0
Di, 27.09. 11:30 0
Di, 27.09. 11:00 0
Di, 27.09. 10:30 0
Di, 27.09. 10:00 0
Di, 27.09. 9:30 0
Link zu dieser Seite / Seite empfehlen

Das Wetter in ...